Terminal Aerodrome Forecast
Issued by NWS Dodge City, KS

Home | Current Version | Previous Version | Text Only | Print | Product List | Glossary On
Versions: 1 2 3 4 5 6 7 8 9 10 11 12 13 14 15 16 17 18 19 20 21 22 23 24 25 26 27 28 29 30 31 32 33 34 35 36 37 38 39 40 41 42 43 44
000
FTUS43 KDDC 182329
TAFDDC
TAF
KDDC 182329Z 1900/1924 16008KT P6SM SCT250
     FM190400 17009KT 1 1/2SM BR BKN008
     FM190600 17008KT 1/2SM FG BKN005
     FM190900 17007KT 1/4SM FG BKN002
     FM191600 17006KT 1SM BR BKN003
     FM191800 17006KT P6SM BKN015
     FM192000 17006KT P6SM SCT030=

USA.gov is the U.S. government's official web portal to all federal, state and local government web resources and services.